Meridien — FT2092 — position and weather

sailwx.info

Track history (hours):
 
Tides and Currents Weather Stations Pressure Air Temp Water Temp Dewpoint Dewpoint Depression Visibility Wind Speed Wind Dir Waves Ship Positions

Meridien

Last reported at 2014-Sep-03 06:32 UTC. Time now 2014-Sep-03 07:30 UTC.
Position N 43°18' E 004°56'.

Length 21 m.

MMSI: 227321780.

Date/timePositionNaut miles runAvg speedWind from/ knotsBaromVisibWave heightAir tempDewpointWater temp
2014-Sep-03 06:32N 43°18' E 004°56'2 1.6
2014-Sep-03 05:33N 43°20' E 004°57'5 1.1
2014-Sep-03 01:09N 43°24' E 004°60'0 0.0
2014-Sep-02 15:33N 43°24' E 004°60'0 0.1
2014-Sep-02 14:33N 43°24' E 004°59'0 0.0
2014-Sep-02 13:34N 43°24' E 004°59'4 4.3
2014-Sep-02 12:33N 43°20' E 004°57'3 2.5
2014-Sep-02 11:32N 43°18' E 004°56'3 0.7
2014-Sep-02 07:27N 43°19' E 004°60'4 3.8
2014-Sep-02 06:22N 43°18' E 004°54'2 2.6
2014-Sep-02 05:31N 43°20' E 004°56'  
2014-Aug-28 15:34N 43°24' E 004°60'0 0.2
2014-Aug-28 14:34N 43°24' E 004°59'1 1.5
2014-Aug-28 13:33N 43°23' E 004°59'5 4.0
2014-Aug-28 12:19N 43°18' E 004°59'3 0.5
2014-Aug-28 07:06N 43°17' E 005°03'7 1.6
2014-Aug-28 02:24N 43°22' E 004°56'3 0.3
2014-Aug-27 14:33N 43°24' E 004°60'3 3.4
2014-Aug-27 13:33N 43°21' E 005°00'4 0.3
2014-Aug-27 02:13N 43°20' E 004°55'6 0.5
2014-Aug-26 15:05N 43°24' E 004°60'0 0.3
2014-Aug-26 14:33N 43°24' E 004°59'3 2.8
2014-Aug-26 13:33N 43°22' E 005°00'1 0.0
2014-Aug-25 13:33N 43°22' E 004°59'7 6.5
2014-Aug-25 12:26N 43°16' E 005°04'7 3.0
2014-Aug-25 10:11N 43°09' E 005°04'  
Track history (hours):
 
Tides and Currents Weather Stations Pressure Air Temp Water Temp Dewpoint Dewpoint Depression Visibility Wind Speed Wind Dir Waves Ship Positions

Meridien

Last reported at 2014-Sep-03 06:32 UTC. Time now 2014-Sep-03 07:30 UTC.
Position N 43°18' E 004°56'.

Length 21 m.

MMSI: 227321780.

Date/timePositionNaut miles runAvg speedWind from/ knotsBaromVisibWave heightAir tempDewpointWater temp
2014-Sep-03 06:32N 43°18' E 004°56'2 1.6
2014-Sep-03 05:33N 43°20' E 004°57'5 1.1
2014-Sep-03 01:09N 43°24' E 004°60'0 0.0
2014-Sep-02 15:33N 43°24' E 004°60'0 0.1
2014-Sep-02 14:33N 43°24' E 004°59'0 0.0
2014-Sep-02 13:34N 43°24' E 004°59'4 4.3
2014-Sep-02 12:33N 43°20' E 004°57'3 2.5
2014-Sep-02 11:32N 43°18' E 004°56'3 0.7
2014-Sep-02 07:27N 43°19' E 004°60'4 3.8
2014-Sep-02 06:22N 43°18' E 004°54'2 2.6
2014-Sep-02 05:31N 43°20' E 004°56'  
2014-Aug-28 15:34N 43°24' E 004°60'0 0.2
2014-Aug-28 14:34N 43°24' E 004°59'1 1.5
2014-Aug-28 13:33N 43°23' E 004°59'5 4.0
2014-Aug-28 12:19N 43°18' E 004°59'3 0.5
2014-Aug-28 07:06N 43°17' E 005°03'7 1.6
2014-Aug-28 02:24N 43°22' E 004°56'3 0.3
2014-Aug-27 14:33N 43°24' E 004°60'3 3.4
2014-Aug-27 13:33N 43°21' E 005°00'4 0.3
2014-Aug-27 02:13N 43°20' E 004°55'6 0.5
2014-Aug-26 15:05N 43°24' E 004°60'0 0.3
2014-Aug-26 14:33N 43°24' E 004°59'3 2.8
2014-Aug-26 13:33N 43°22' E 005°00'1 0.0
2014-Aug-25 13:33N 43°22' E 004°59'7 6.5
2014-Aug-25 12:26N 43°16' E 005°04'7 3.0
2014-Aug-25 10:11N 43°09' E 005°04'  

Dump ship's entire track history